Quincy Regional Baldwin Field
KUIN : now visible

Airfield :











YOU CAN JOIN US ON...

 
LOGIN :

Register | Disclaimer

   EN    FR    IT 

 









Legend :    VFR   Marginal VFR   IFR   Intensive IFR   Very Intensive IFR
Visi :
Ceiling :
>= 8 km
>= 3000ft
5 to 8 km
1000 to 3000 ft
1500m to 5 km
500 to 1000 ft
800 to 1500m
200 to 500 ft
< 800m
< 200 ft
Symbols :   Thunderstorms  Fog  Heavy snow  Heavy precipitations  Wind > 20 kt






- Airport Elevation : 768 ft
- IATA code : UIN


KUIN - Quincy Regional Baldwin Field

CURRENT METAR :
  • 161754Z AUTO 13005KT 10SM CLR 03/M02 A3011 RMK AO2 SLP205 I6001 T00331017 10033 21078 58007

EXPIRED METARs :
  • 161654Z AUTO 14007KT 10SM CLR 02/M01 A3013 RMK AO2 SLP212 T00171011
  • 161554Z AUTO 13003KT 7SM CLR 00/M02 A3013 RMK AO2 SLP210 T00001017

TAF KUIN
Valid from the 16 at 18:00 until the 17 at 18:00 UTC


161738Z 1618/1718 14006KT P6SM SCT250
FM170700 13008KT P6SM OVC070
FM171000 13008KT P6SM -RA OVC035
FM171100 13009KT 5SM -RA BR OVC015
FM171500 14009KT 3SM BR VCSH OVC007



MET'MAP, your aeronautical weather chart ! - Copyright ORBIFLY December 2007 - Disclaimer

ORBIFLY MET'MAP TEAM :

Programming & Development : Alexandra Zaïnal
Concept & original design : Baudouin d'Aumeries
Assistance for programming : Marc-Olivier Méhu
Technical & hardware support : Manuel Goepfert

Contact : metmap@orbifly.com




SOURCES & CREDITS :

   NOAA       Earth
Advisory